Aviation Digital Data Service (ADDS)

Output produced by TAFs form (0527 UTC 19 January 2018)
found at http://www.aviationweather.gov/adds/tafs/
 
METAR text: RJTC 190330Z 08007KT 040V150 9999 FEW030 BKN060 11/M04 Q1017 RMK 1CU030 6SC060 A3005
Conditions at: RJTC (TACHIKAWA (JASDF, JP) observed 0330 UTC 19 January 2018
Temperature: 11.0°C (52°F)
Dewpoint: -4.0°C (25°F) [RH = 35%]
Pressure (altimeter): 30.03 inches Hg (1017.0 mb)
Winds: from the E (80 degrees) at 8 MPH (7 knots; 3.6 m/s)
Visibility: 6 or more miles (10+ km)
Ceiling: 6000 feet AGL
Clouds: few clouds at 3000 feet AGL
broken clouds at 6000 feet AGL
Weather: no significant weather observed at this time